there are no active watches, warnings or advisories



my webcam  My webcam


visit our other weather sites:

Template documentation
and downloads

And another site




nearby metar reports

   
KAHN - Athens Airport, GA
distance from station: e 35 mi
updated: Oct 23 2020 3:51 am
clear  
clear  
   wind: ene 4.6 mph
wind: ene 4.6 mph
temperature: 62.6°F
dew point: 60.8°F
humidity: 94%
barometer: 30.14 inHg
clouds: Clear
visibility: 10 mi
cloud details: clear ft
KAHN 230751Z AUTO 06004KT 10SM CLR 17/16 A3014 RMK AO2 SLP199 T01720156
KBGE - Brainbridge Airport, GA
distance from station: ssw 180 mi
updated: Oct 23 2020 4:15 am
clear  
clear  
   wind: east 5.8 mph
wind: east 5.8 mph
temperature: 66.2°F
dew point: 66.2°F
humidity: 100%
barometer: 30.05 inHg
clouds: Clear
visibility: 10 mi
cloud details: clear ft
KBGE 230815Z AUTO 09005KT 10SM CLR 19/19 A3005 RMK AO2 T01940190
KSSI - Brunswick Airport, GA
distance from station: se 209 mi
updated: Oct 23 2020 3:53 am
mostly cloudy  
mostly cloudy  
   wind: nne 4.6 mph
wind: nne 4.6 mph
temperature: 73.4°F
dew point: 71.6°F
humidity: 94%
barometer: 30.06 inHg
clouds: Mostly Cloudy
visibility: 10 mi
cloud details: mostly cloudy 4000 ft,
mostly cloudy 4700 ft
KSSI 230753Z AUTO 03004KT 10SM BKN040 BKN047 23/22 A3006 RMK AO2 RAE0658 SLP179 P0000 T02280222
KCSG - Columbus Airport, GA
distance from station: sw 92 mi
updated: Oct 23 2020 3:51 am
clear  
clear  
   wind: east 5.8 mph
wind: east 5.8 mph
temperature: 68°F
dew point: 64.4°F
humidity: 88%
barometer: 30.08 inHg
clouds: Clear
visibility: 10 mi
cloud details: clear ft
KCSG 230751Z AUTO 09005KT 10SM CLR 20/18 A3008 RMK AO2 SLP181 T02000183
KGVL - Gainsville Airport, GA
distance from station: n 30 mi
updated: Oct 23 2020 3:53 am
overcast  
overcast  
   wind: east 3.5 mph
wind: east 3.5 mph
temperature: 66.2°F
dew point: 60.8°F
humidity: 83%
barometer: 30.17 inHg
clouds: Overcast
visibility: 10 mi
cloud details: few clouds 2800 ft,
partly cloudy 3500 ft,
overcast 4800 ft
KGVL 230753Z AUTO 10003KT 10SM FEW028 SCT035 OVC048 19/16 A3017 RMK AO2 SLP202 T01890161
KRMG - Rome Airport, GA
distance from station: nw 60 mi
updated: Oct 23 2020 3:53 am
overcast  
overcast  
   wind: calm
wind: calm
temperature: 64.4°F
dew point: 41°F
humidity: 43%
barometer: 30.11 inHg
clouds: Overcast
visibility: 10 mi
cloud details: mostly cloudy 6500 ft,
overcast 7500 ft
KRMG 230753Z AUTO 00000KT 10SM BKN065 OVC075 18/05 A3011 RMK AO2 SLP187 T01830050
KSAV - Savannah Airport, GA
distance from station: se 183 mi
updated: Oct 23 2020 4:16 am
mist, clear  
mist, clear  
   wind: nne 4.6 mph
wind: nne 4.6 mph
temperature: 68°F
dew point: 66.2°F
humidity: 94%
barometer: 30.08 inHg
clouds: Clear
visibility: 1 mi
cloud details: clear ft
KSAV 230816Z AUTO 02004KT 1SM R10/P6000FT BR CLR 20/19 A3008 RMK AO2 T02000194
KVLD - Valdosta Airport, GA
distance from station: s 185 mi
updated: Oct 23 2020 3:53 am
mostly cloudy  
mostly cloudy  
   wind: calm
wind: calm
temperature: 69.8°F
dew point: 66.2°F
humidity: 88%
barometer: 30.05 inHg
clouds: Mostly Cloudy
visibility: 10 mi
cloud details: mostly cloudy 7000 ft
KVLD 230753Z 00000KT 10SM BKN070 21/19 A3005 RMK AO2 SLP183 T02110194
KWRB - Warner Robins Airport, GA
distance from station: sse 78 mi
updated: Oct 23 2020 3:56 am
clear  
clear  
   wind: calm
wind: calm
temperature: 64.4°F
dew point: 64.4°F
humidity: 100%
barometer: 30.09 inHg
clouds: Clear
visibility: 10 mi
cloud details: clear ft
KWRB 230756Z 00000KT 10SM CLR 18/18 A3009 RMK AO2A SLP190 T01760176

script developed by  Saratoga-weather.org adapted for the template by  Weerstation Leuven

equipment we use:

weather-station
Davis VP2 weatherstation

weather-program
WeatherLink

weather-server
My Computer

provider
My provider

Davis VP2 weatherstation

WeatherLink

My Computer

My provider